Airport Name : Cambridge Bay

Other Name : Cambridge Bay

ICAO : CYCB

IATA : YCB

FAA :

Latitude : 69.108055

Longitude : -105.138333

Country : Canada

Local Date and Time : 7/18/2018 4:16:00 PM

 

TAF (Terminal Aerodrome Forecast)

TAF CYCB 181838Z 1819/1907 31010KT P6SM SCT025 BKN220 TEMPO 1819/1822 BKN020 FM182200 29015KT P6SM BKN040 RMK NXT FCST BY 190100Z

 

METAR (METeorological Aerodrome Report)

CYCB 182200Z 26015KT 15SM FEW025 FEW080 SCT120 BKN220 12/07 A2994 RMK SC1AC1AC1CI2 SLP141

CYCB 182100Z 26012KT 15SM FEW025 SCT090 SCT120 BKN220 13/08 A2992 RMK SC2AC1AC1CI2 SLP137

CYCB 182000Z 28015KT 15SM SCT020 BKN120 BKN220 16/09 A2990 RMK SC3AC2CI1 SLP130 DENSITY ALT 300FT

CYCB 181900Z 27013KT 15SM BKN019 BKN060 BKN150 BKN220 13/08 A2989 RMK SC5SC1AC1CI1 SC TR CI TR SLP126